KMCI/MCI METAR and TAF weather

Enter ICAO airport designator
Station Type Date Time Source
KMCI METAR 2018/12/15 01:53 UTC NOAA

KMCI 150153Z 36008KT 10SM CLR 01/M05 A3020 RMK AO2 SLP235 T00061050 $


Station Type Date Time Source
KMCI Decoded METAR 2018/12/15 01:53 UTC NOAA

KANSAS CITY INTERNATIONAL AIRPORT, MO, United States (KMCI) 39-18N 94-44W 320M
Dec 14, 2018 - 08:53 PM EST / 2018.12.15 0153 UTC
Wind: from the N (360 degrees) at 9 MPH (8 KT):0
Visibility: 10 mile(s):0
Sky conditions: clear
Temperature: 33.1 F (0.6 C)
Windchill: 24 F (-4 C):1
Dew Point: 23.0 F (-5.0 C)
Relative Humidity: 66%
Pressure (altimeter): 30.2 in. Hg (1022 hPa)
ob: KMCI 150153Z 36008KT 10SM CLR 01/M05 A3020 RMK AO2 SLP235 T00061050
cycle: 2

Station Type Date Time Source
KMCI TAF 2018/12/14 18:22 UTC NOAA

TAF KMCI 141720Z 1418/1518 36009KT P6SM SKC


Example: see airport list